KMUI/MUI METAR and TAF weather

Enter ICAO airport designator
Station Type Date Time Source
KMUI METAR 2022/08/12 14:56 UTC NOAA

KMUI 121456Z 02010G14KT 10SM FEW060 24/08 A3006 RMK AO2A SLP179 T02420082 51007


Station Type Date Time Source
KMUI Decoded METAR 2022/08/12 14:56 UTC NOAA

Muir Army Air Field / Indiantown, PA, United States (KMUI) 40-26N 076-34W
Aug 12, 2022 - 10:56 AM EDT / 2022.08.12 1456 UTC
Wind: from the NNE (020 degrees) at 12 MPH (10 KT) gusting to 16 MPH (14 KT):0
Visibility: 10 mile(s):0
Sky conditions: mostly clear
Temperature: 75.6 F (24.2 C)
Dew Point: 46.8 F (8.2 C)
Relative Humidity: 35%
Pressure (altimeter): 30.06 in. Hg (1017 hPa)
Pressure tendency: 0.02 inches (0.7 hPa) higher than three hours ago
ob: KMUI 121456Z 02010G14KT 10SM FEW060 24/08 A3006 RMK AO2A SLP179 T02420082 51007
cycle: 15

Station Type Date Time Source
KMUI TAF 2022/08/12 11:18 UTC NOAA

TAF TAF KMUI 121100Z 1211/1317 36009KT 9999 FEW040 QNH3001INS WND 36012KT AFT 1215
BECMG 1300/1301 VRB06KT 9999 FEW050 QNH3008INS TX25/1220Z TN12/1311Z

Example: see airport list